createdAt,value
2023-03-05T00:00:10.054Z,33.63
2023-03-05T00:01:15.432Z,36.15
2023-03-05T00:02:19.135Z,33.80
2023-03-05T00:03:22.881Z,35.70
2023-03-05T00:04:26.559Z,39.78
2023-03-05T00:05:30.210Z,37.95
2023-03-05T00:06:34.620Z,36.70
2023-03-05T00:07:38.356Z,37.10
2023-03-05T00:08:42.194Z,34.10
2023-03-05T00:09:45.778Z,36.50
2023-03-05T00:10:57.330Z,36.63
2023-03-05T00:12:02.565Z,36.47
2023-03-05T00:13:06.179Z,34.83
2023-03-05T00:14:11.196Z,34.13
2023-03-05T00:15:14.942Z,37.50
2023-03-05T00:16:18.683Z,37.50
2023-03-05T00:17:22.505Z,37.88
2023-03-05T00:18:26.286Z,34.63
2023-03-05T00:19:29.930Z,37.08
2023-03-05T00:20:36.171Z,35.08
2023-03-05T00:21:40.766Z,39.35
2023-03-05T00:22:44.435Z,38.45
2023-03-05T00:23:48.093Z,41.13
2023-03-05T00:24:52.356Z,36.80
2023-03-05T00:25:56.056Z,35.67
2023-03-05T00:27:01.354Z,40.25
2023-03-05T00:28:05.474Z,41.25
2023-03-05T00:29:10.255Z,37.57
2023-03-05T00:30:14.931Z,42.88
2023-03-05T00:31:19.078Z,43.00
2023-03-05T00:32:22.808Z,36.35
2023-03-05T00:33:26.525Z,36.53
2023-03-05T00:34:30.295Z,37.00
2023-03-05T00:35:39.554Z,33.63
2023-03-05T00:36:44.136Z,37.13
2023-03-05T00:37:47.734Z,34.97
2023-03-05T00:38:51.493Z,40.03
2023-03-05T00:39:55.169Z,37.17
2023-03-05T00:40:58.793Z,41.15
2023-03-05T00:42:04.209Z,42.45
2023-03-05T00:43:08.558Z,43.70
2023-03-05T00:44:12.452Z,38.97
2023-03-05T00:45:16.143Z,38.27
2023-03-05T00:46:19.888Z,39.50
2023-03-05T00:47:23.537Z,40.70
2023-03-05T00:48:27.338Z,39.33
2023-03-05T00:49:31.145Z,42.03
2023-03-05T00:50:34.800Z,44.33
2023-03-05T00:51:38.543Z,37.35
2023-03-05T00:52:42.188Z,37.75
2023-03-05T00:53:45.985Z,39.00
2023-03-05T00:54:49.674Z,38.88
2023-03-05T00:55:53.352Z,44.73
2023-03-05T00:56:56.979Z,36.70
2023-03-05T00:58:02.281Z,36.50
2023-03-05T00:59:06.002Z,34.47
2023-03-05T01:00:14.212Z,33.33
2023-03-05T01:01:17.962Z,34.03
2023-03-05T01:02:21.847Z,35.53
2023-03-05T01:03:25.541Z,35.63
2023-03-05T01:04:29.160Z,36.75
2023-03-05T01:05:33.019Z,33.10
2023-03-05T01:06:36.688Z,37.50
2023-03-05T01:07:40.614Z,37.08
2023-03-05T01:08:44.930Z,34.88
2023-03-05T01:09:48.634Z,35.63
2023-03-05T01:10:52.544Z,34.63
2023-03-05T01:11:56.237Z,41.90
2023-03-05T01:13:01.464Z,35.47
2023-03-05T01:14:05.157Z,33.50
2023-03-05T01:15:09.319Z,33.45
2023-03-05T01:16:13.158Z,33.28
2023-03-05T01:17:16.872Z,34.97
2023-03-05T01:18:21.455Z,36.28
2023-03-05T01:19:25.154Z,34.60
2023-03-05T01:20:28.924Z,35.08
2023-03-05T01:21:32.744Z,36.28
2023-03-05T01:22:36.452Z,36.80
2023-03-05T01:23:40.154Z,36.67
2023-03-05T01:24:43.862Z,37.20
2023-03-05T01:25:53.578Z,39.55
2023-03-05T01:26:57.358Z,38.58
2023-03-05T01:28:02.785Z,35.80
2023-03-05T01:29:06.481Z,37.53
2023-03-05T01:30:13.547Z,37.53
2023-03-05T01:31:17.227Z,37.65
2023-03-05T01:32:20.947Z,37.42
2023-03-05T01:33:24.934Z,38.90
2023-03-05T01:34:28.558Z,32.92
2023-03-05T01:35:32.347Z,35.92
2023-03-05T01:36:36.048Z,38.25
2023-03-05T01:37:39.705Z,36.58
2023-03-05T01:38:44.332Z,37.33
2023-03-05T01:39:47.975Z,35.50
2023-03-05T01:40:51.915Z,34.10
2023-03-05T01:41:55.654Z,41.05
2023-03-05T01:43:07.490Z,40.05
2023-03-05T01:44:22.059Z,37.80
2023-03-05T01:45:26.718Z,37.20
2023-03-05T01:46:35.588Z,42.65
2023-03-05T01:47:39.975Z,38.13
2023-03-05T01:48:45.281Z,37.92
2023-03-05T01:49:49.080Z,38.70
2023-03-05T01:50:52.697Z,41.53
2023-03-05T01:52:07.180Z,40.95
2023-03-05T01:53:10.840Z,35.72
2023-03-05T01:54:18.204Z,36.45
2023-03-05T01:55:24.652Z,38.00
2023-03-05T01:56:30.436Z,34.38
2023-03-05T01:57:37.276Z,34.75
2023-03-05T01:58:43.148Z,35.78
2023-03-05T01:59:51.111Z,36.70
2023-03-05T02:00:56.285Z,38.83
2023-03-05T02:02:00.498Z,39.00
2023-03-05T02:03:10.514Z,38.03
2023-03-05T02:04:17.842Z,37.00
2023-03-05T02:05:26.951Z,36.45
2023-03-05T02:06:30.978Z,34.37
2023-03-05T02:07:35.330Z,38.65
2023-03-05T02:08:39.007Z,37.63
2023-03-05T02:09:43.118Z,37.60
2023-03-05T02:10:49.120Z,39.17
2023-03-05T02:11:53.381Z,35.40
2023-03-05T02:13:01.572Z,37.25
2023-03-05T02:14:10.144Z,36.33
2023-03-05T02:15:14.270Z,37.13
2023-03-05T02:16:18.103Z,35.80
2023-03-05T02:17:21.838Z,37.73
2023-03-05T02:18:25.551Z,36.08
2023-03-05T02:19:29.285Z,35.35
2023-03-05T02:20:46.037Z,37.03
2023-03-05T02:21:51.366Z,39.33
2023-03-05T02:22:55.127Z,35.97
2023-03-05T02:23:58.771Z,37.05
2023-03-05T02:25:02.478Z,38.67
2023-03-05T02:26:08.813Z,38.08
2023-03-05T02:27:14.473Z,42.63
2023-03-05T02:28:24.095Z,35.47
2023-03-05T02:29:30.110Z,35.10
2023-03-05T02:30:33.741Z,35.20
2023-03-05T02:31:40.327Z,41.47
2023-03-05T02:32:43.967Z,37.63
2023-03-05T02:33:47.983Z,38.40
2023-03-05T02:34:51.634Z,38.78
2023-03-05T02:35:55.337Z,37.67
2023-03-05T02:37:00.653Z,36.00
2023-03-05T02:38:04.427Z,35.50
2023-03-05T02:39:08.754Z,35.83
2023-03-05T02:40:14.058Z,34.58
2023-03-05T02:41:17.993Z,35.45
2023-03-05T02:42:21.711Z,34.10
2023-03-05T02:43:25.652Z,36.95
2023-03-05T02:44:29.364Z,35.53
2023-03-05T02:45:33.074Z,33.05
2023-03-05T02:46:36.796Z,37.85
2023-03-05T02:47:40.517Z,35.83
2023-03-05T02:48:44.364Z,38.13
2023-03-05T02:49:48.006Z,36.13
2023-03-05T02:50:52.226Z,37.55
2023-03-05T02:51:56.003Z,35.35
2023-03-05T02:53:01.334Z,36.33
2023-03-05T02:54:05.266Z,34.15
2023-03-05T02:55:09.834Z,35.77
2023-03-05T02:56:13.529Z,38.38
2023-03-05T02:57:17.189Z,39.42
2023-03-05T02:58:20.960Z,36.80
2023-03-05T02:59:24.667Z,33.35
2023-03-05T03:00:28.834Z,35.53
2023-03-05T03:01:32.641Z,39.75
2023-03-05T03:02:36.296Z,37.53
2023-03-05T03:03:40.770Z,37.95
2023-03-05T03:04:45.418Z,32.50
2023-03-05T03:05:49.041Z,37.67
2023-03-05T03:06:52.785Z,34.00
2023-03-05T03:07:56.410Z,36.90
2023-03-05T03:09:01.710Z,35.17
2023-03-05T03:10:06.413Z,34.33
2023-03-05T03:11:11.608Z,36.07
2023-03-05T03:12:16.307Z,36.35
2023-03-05T03:13:19.956Z,35.03
2023-03-05T03:14:23.619Z,35.88
2023-03-05T03:15:27.334Z,36.78
2023-03-05T03:16:31.135Z,33.77
2023-03-05T03:17:36.309Z,33.33
2023-03-05T03:18:40.209Z,34.92
2023-03-05T03:19:44.630Z,33.40
2023-03-05T03:20:48.311Z,32.53
2023-03-05T03:21:52.033Z,33.20
2023-03-05T03:22:55.841Z,32.58
2023-03-05T03:24:01.240Z,37.25
2023-03-05T03:25:06.460Z,34.25
2023-03-05T03:26:10.152Z,32.60
2023-03-05T03:27:13.807Z,33.80
2023-03-05T03:28:17.692Z,32.65
2023-03-05T03:29:21.361Z,36.35
2023-03-05T03:30:25.141Z,35.00
2023-03-05T03:31:28.869Z,35.53
2023-03-05T03:32:33.362Z,32.67
2023-03-05T03:33:37.161Z,34.33
2023-03-05T03:34:40.897Z,34.35
2023-03-05T03:35:44.552Z,35.17
2023-03-05T03:36:49.681Z,33.17
2023-03-05T03:37:53.346Z,36.60
2023-03-05T03:38:57.046Z,35.35
2023-03-05T03:40:02.394Z,37.05
2023-03-05T03:41:07.488Z,34.70
2023-03-05T03:42:11.114Z,37.05
2023-03-05T03:43:14.783Z,34.30
2023-03-05T03:44:19.501Z,37.83
2023-03-05T03:45:23.381Z,35.83
2023-03-05T03:46:27.123Z,37.17
2023-03-05T03:47:30.949Z,39.42
2023-03-05T03:48:34.655Z,37.37
2023-03-05T03:49:38.270Z,35.97
2023-03-05T03:50:42.097Z,37.28
2023-03-05T03:51:46.037Z,36.75
2023-03-05T03:52:49.700Z,38.72
2023-03-05T03:53:53.421Z,39.47
2023-03-05T03:54:57.158Z,37.10
2023-03-05T03:56:02.615Z,36.75
2023-03-05T03:57:12.406Z,39.22
2023-03-05T03:58:16.215Z,40.35
2023-03-05T03:59:19.967Z,38.27
2023-03-05T04:00:23.912Z,35.75
2023-03-05T04:01:27.638Z,38.85
2023-03-05T04:02:31.361Z,39.30
2023-03-05T04:03:35.021Z,44.78
2023-03-05T04:04:38.809Z,37.70
2023-03-05T04:05:42.477Z,40.10
2023-03-05T04:06:46.103Z,38.67
2023-03-05T04:07:49.783Z,40.85
2023-03-05T04:08:53.439Z,36.92
2023-03-05T04:09:57.206Z,40.13
2023-03-05T04:11:04.210Z,39.15
2023-03-05T04:12:08.468Z,38.50
2023-03-05T04:13:12.104Z,42.45
2023-03-05T04:14:15.846Z,37.65
2023-03-05T04:15:19.858Z,38.37
2023-03-05T04:16:23.671Z,39.03
2023-03-05T04:17:27.291Z,39.80
2023-03-05T04:18:32.537Z,39.25
2023-03-05T04:19:36.290Z,41.33
2023-03-05T04:20:39.936Z,41.23
2023-03-05T04:21:43.715Z,40.28
2023-03-05T04:22:47.368Z,42.15
2023-03-05T04:23:51.019Z,38.90
2023-03-05T04:24:54.888Z,41.80
2023-03-05T04:25:58.541Z,37.07
2023-03-05T04:27:03.926Z,37.05
2023-03-05T04:28:07.817Z,36.45
2023-03-05T04:29:11.571Z,37.28
2023-03-05T04:30:15.994Z,37.72
2023-03-05T04:31:19.953Z,43.03
2023-03-05T04:32:23.707Z,39.47
2023-03-05T04:33:27.401Z,35.53
2023-03-05T04:34:31.041Z,37.95
2023-03-05T04:35:34.775Z,38.28
2023-03-05T04:36:38.383Z,37.87
2023-03-05T04:37:42.105Z,37.63
2023-03-05T04:38:45.892Z,39.67
2023-03-05T04:39:49.548Z,38.97
2023-03-05T04:40:53.351Z,37.38
2023-03-05T04:41:57.146Z,41.73
2023-03-05T04:43:02.716Z,39.67
2023-03-05T04:44:06.711Z,37.78
2023-03-05T04:45:11.179Z,38.60
2023-03-05T04:46:14.854Z,35.35
2023-03-05T04:47:19.121Z,33.27
2023-03-05T04:48:22.779Z,36.38
2023-03-05T04:49:26.533Z,35.83
2023-03-05T04:50:30.227Z,37.63
2023-03-05T04:51:33.863Z,36.08
2023-03-05T04:52:40.494Z,33.97
2023-03-05T04:53:44.154Z,39.03
2023-03-05T04:54:48.290Z,37.03
2023-03-05T04:55:54.554Z,36.53
2023-03-05T04:56:58.301Z,40.00
2023-03-05T04:58:03.896Z,38.03
2023-03-05T04:59:07.555Z,36.20
2023-03-05T05:00:13.986Z,38.03
2023-03-05T05:01:17.779Z,38.30
2023-03-05T05:02:21.488Z,38.22
2023-03-05T05:03:25.250Z,39.57
2023-03-05T05:04:28.854Z,38.10
2023-03-05T05:05:32.548Z,36.20
2023-03-05T05:06:36.271Z,35.97
2023-03-05T05:07:40.177Z,37.40
2023-03-05T05:08:44.403Z,35.20
2023-03-05T05:09:48.125Z,38.35
2023-03-05T05:11:00.251Z,33.85
2023-03-05T05:12:04.671Z,35.58
2023-03-05T05:13:09.962Z,35.53
2023-03-05T05:14:13.783Z,36.60
2023-03-05T05:15:18.105Z,37.60
2023-03-05T05:16:21.963Z,39.15
2023-03-05T05:17:25.813Z,41.83
2023-03-05T05:18:29.534Z,35.97
2023-03-05T05:19:33.577Z,43.03
2023-03-05T05:20:37.425Z,41.83
2023-03-05T05:21:41.329Z,39.42
2023-03-05T05:22:45.378Z,42.28
2023-03-05T05:23:49.888Z,39.30
2023-03-05T05:24:53.518Z,38.90
2023-03-05T05:26:01.706Z,36.70
2023-03-05T05:27:05.527Z,40.45
2023-03-05T05:28:11.965Z,40.15
2023-03-05T05:29:15.689Z,37.58
2023-03-05T05:30:19.401Z,37.07
2023-03-05T05:31:23.333Z,37.13
2023-03-05T05:32:27.082Z,37.35
2023-03-05T05:33:30.808Z,39.50
2023-03-05T05:34:34.624Z,38.25
2023-03-05T05:35:41.129Z,37.80
2023-03-05T05:36:44.834Z,41.40
2023-03-05T05:37:48.604Z,36.58
2023-03-05T05:38:52.250Z,37.17
2023-03-05T05:39:55.959Z,39.40
2023-03-05T05:41:05.481Z,41.57
2023-03-05T05:42:09.357Z,38.13
2023-03-05T05:43:14.710Z,37.42
2023-03-05T05:44:18.576Z,39.38
2023-03-05T05:45:22.259Z,39.83
2023-03-05T05:46:26.378Z,40.23
2023-03-05T05:47:30.441Z,40.28
2023-03-05T05:48:36.252Z,38.13
2023-03-05T05:49:40.358Z,40.00
2023-03-05T05:50:44.037Z,40.85
2023-03-05T05:51:47.711Z,40.47
2023-03-05T05:52:52.752Z,38.38
2023-03-05T05:53:56.541Z,40.17
2023-03-05T05:55:00.230Z,38.35
2023-03-05T05:56:06.061Z,39.40
2023-03-05T05:57:09.784Z,40.37
2023-03-05T05:58:15.132Z,43.03
2023-03-05T05:59:18.987Z,42.65
2023-03-05T06:00:23.482Z,40.05
2023-03-05T06:01:29.915Z,40.97
2023-03-05T06:02:33.542Z,41.53
2023-03-05T06:03:37.169Z,42.58
2023-03-05T06:04:40.837Z,41.67
2023-03-05T06:05:44.640Z,40.47
2023-03-05T06:06:48.345Z,43.95
2023-03-05T06:07:52.058Z,42.43
2023-03-05T06:08:56.110Z,42.63
2023-03-05T06:09:59.838Z,39.13
2023-03-05T06:11:03.529Z,37.63
2023-03-05T06:12:08.360Z,38.05
2023-03-05T06:13:12.040Z,38.80
2023-03-05T06:14:17.666Z,42.10
2023-03-05T06:15:21.397Z,41.67
2023-03-05T06:16:26.267Z,38.70
2023-03-05T06:17:31.185Z,40.60
2023-03-05T06:18:35.378Z,42.20
2023-03-05T06:19:39.159Z,43.08
2023-03-05T06:20:42.867Z,38.38
2023-03-05T06:21:46.598Z,44.40
2023-03-05T06:22:50.251Z,41.65
2023-03-05T06:23:53.936Z,39.90
2023-03-05T06:24:57.672Z,43.75
2023-03-05T06:26:01.987Z,45.38
2023-03-05T06:27:06.038Z,40.55
2023-03-05T06:28:09.732Z,44.45
2023-03-05T06:29:13.361Z,45.43
2023-03-05T06:30:19.016Z,43.53
2023-03-05T06:31:24.307Z,47.50
2023-03-05T06:32:28.058Z,43.25
2023-03-05T06:33:32.200Z,49.00
2023-03-05T06:34:35.868Z,45.23
2023-03-05T06:35:39.864Z,40.40
2023-03-05T06:36:43.666Z,42.38
2023-03-05T06:37:47.345Z,46.15
2023-03-05T06:38:53.220Z,40.03
2023-03-05T06:39:57.199Z,41.50
2023-03-05T06:41:02.625Z,44.65
2023-03-05T06:42:06.812Z,42.25
2023-03-05T06:43:10.514Z,43.30
2023-03-05T06:44:14.204Z,43.00
2023-03-05T06:45:19.633Z,42.00
2023-03-05T06:46:25.613Z,43.60
2023-03-05T06:47:29.603Z,43.85
2023-03-05T06:48:33.779Z,47.63
2023-03-05T06:49:38.219Z,49.20
2023-03-05T06:50:41.955Z,43.60
2023-03-05T06:51:45.639Z,42.50
2023-03-05T06:52:51.034Z,42.65
2023-03-05T06:53:55.323Z,47.42
2023-03-05T06:54:59.023Z,46.75
2023-03-05T06:56:03.301Z,43.83
2023-03-05T06:57:07.017Z,41.17
2023-03-05T06:58:10.783Z,44.50
2023-03-05T06:59:15.512Z,48.90
2023-03-05T07:00:21.959Z,42.63
2023-03-05T07:01:25.986Z,44.80
2023-03-05T07:02:29.683Z,42.55
2023-03-05T07:03:33.562Z,43.63
2023-03-05T07:04:37.201Z,43.70
2023-03-05T07:05:41.253Z,37.78
2023-03-05T07:06:45.284Z,38.03
2023-03-05T07:07:48.978Z,43.58
2023-03-05T07:08:55.118Z,39.00
2023-03-05T07:09:58.718Z,40.35
2023-03-05T07:11:02.501Z,40.90
2023-03-05T07:12:06.612Z,41.40
2023-03-05T07:13:11.082Z,40.20
2023-03-05T07:14:14.733Z,42.75
2023-03-05T07:15:20.288Z,40.17
2023-03-05T07:16:26.005Z,42.28
2023-03-05T07:17:29.690Z,42.57
2023-03-05T07:18:33.548Z,42.80
2023-03-05T07:19:38.780Z,37.58
2023-03-05T07:20:42.618Z,39.42
2023-03-05T07:21:46.368Z,38.28
2023-03-05T07:22:49.997Z,41.03
2023-03-05T07:23:55.366Z,39.10
2023-03-05T07:24:59.078Z,39.08
2023-03-05T07:26:03.635Z,40.92
2023-03-05T07:27:07.550Z,39.88
2023-03-05T07:28:11.229Z,38.23
2023-03-05T07:29:14.874Z,41.40
2023-03-05T07:30:20.654Z,41.45
2023-03-05T07:31:25.786Z,42.47
2023-03-05T07:32:29.627Z,43.72
2023-03-05T07:33:33.864Z,42.37
2023-03-05T07:34:39.125Z,41.42
2023-03-05T07:35:42.931Z,42.75
2023-03-05T07:36:46.708Z,39.22
2023-03-05T07:37:50.464Z,39.65
2023-03-05T07:38:54.555Z,37.37
2023-03-05T07:39:58.306Z,41.65
2023-03-05T07:41:04.360Z,38.97
2023-03-05T07:42:08.375Z,39.83
2023-03-05T07:43:12.067Z,37.67
2023-03-05T07:44:15.743Z,37.27
2023-03-05T07:45:21.070Z,40.97
2023-03-05T07:46:28.684Z,40.60
2023-03-05T07:47:32.565Z,41.00
2023-03-05T07:48:36.539Z,41.40
2023-03-05T07:49:40.129Z,39.07
2023-03-05T07:50:43.940Z,38.45
2023-03-05T07:51:47.653Z,41.15
2023-03-05T07:52:51.457Z,38.72
2023-03-05T07:54:00.551Z,37.35
2023-03-05T07:55:04.377Z,35.07
2023-03-05T07:56:08.900Z,38.53
2023-03-05T07:57:13.176Z,40.60
2023-03-05T07:58:16.859Z,37.25
2023-03-05T07:59:20.670Z,43.53
2023-03-05T08:00:25.980Z,39.83
2023-03-05T08:01:30.022Z,37.05
2023-03-05T08:02:33.762Z,37.40
2023-03-05T08:03:37.452Z,38.55
2023-03-05T08:04:41.344Z,37.15
2023-03-05T08:05:45.223Z,42.50
2023-03-05T08:06:49.176Z,36.97
2023-03-05T08:07:52.869Z,40.08
2023-03-05T08:08:56.692Z,38.63
2023-03-05T08:10:00.276Z,36.10
2023-03-05T08:11:05.765Z,39.57
2023-03-05T08:12:10.194Z,42.90
2023-03-05T08:13:14.118Z,40.15
2023-03-05T08:14:17.898Z,41.75
2023-03-05T08:15:21.576Z,41.30
2023-03-05T08:16:28.490Z,38.60
2023-03-05T08:17:32.672Z,41.00
2023-03-05T08:18:37.632Z,39.85
2023-03-05T08:19:42.573Z,40.60
2023-03-05T08:20:47.725Z,39.60
2023-03-05T08:21:55.011Z,38.03
2023-03-05T08:23:01.280Z,42.45
2023-03-05T08:24:07.241Z,40.38
2023-03-05T08:25:11.225Z,41.38
2023-03-05T08:26:16.632Z,37.78
2023-03-05T08:27:20.326Z,42.70
2023-03-05T08:28:24.209Z,44.03
2023-03-05T08:29:28.766Z,36.92
2023-03-05T08:30:32.864Z,35.58
2023-03-05T08:31:39.145Z,38.20
2023-03-05T08:32:43.087Z,36.60
2023-03-05T08:33:46.934Z,41.25
2023-03-05T08:34:50.596Z,33.90
2023-03-05T08:35:54.336Z,40.75
2023-03-05T08:36:58.013Z,38.95
2023-03-05T08:38:01.761Z,36.87
2023-03-05T08:39:05.590Z,41.53
2023-03-05T08:40:10.849Z,37.35
2023-03-05T08:41:15.182Z,38.15
2023-03-05T08:42:19.053Z,41.42
2023-03-05T08:43:22.700Z,39.73
2023-03-05T08:44:26.317Z,40.85
2023-03-05T08:45:30.108Z,39.63
2023-03-05T08:46:34.000Z,38.45
2023-03-05T08:47:39.438Z,38.47
2023-03-05T08:48:43.614Z,39.50
2023-03-05T08:49:47.295Z,39.40
2023-03-05T08:50:50.977Z,36.35
2023-03-05T08:51:54.656Z,41.08
2023-03-05T08:52:58.363Z,38.88
2023-03-05T08:54:02.180Z,42.10
2023-03-05T08:55:06.353Z,44.90
2023-03-05T08:56:10.307Z,39.50
2023-03-05T08:57:13.956Z,42.55
2023-03-05T08:58:17.702Z,41.90
2023-03-05T08:59:21.449Z,38.03
2023-03-05T09:00:25.249Z,39.08
2023-03-05T09:01:28.963Z,41.38
2023-03-05T09:02:32.759Z,40.10
2023-03-05T09:03:38.223Z,43.53
2023-03-05T09:04:42.104Z,39.20
2023-03-05T09:05:46.117Z,41.05
2023-03-05T09:06:49.867Z,42.97
2023-03-05T09:07:53.513Z,39.60
2023-03-05T09:08:57.162Z,40.55
2023-03-05T09:10:00.885Z,37.77
2023-03-05T09:11:05.927Z,38.80
2023-03-05T09:12:12.151Z,38.80
2023-03-05T09:13:15.985Z,40.90
2023-03-05T09:14:19.744Z,36.88
2023-03-05T09:15:23.450Z,37.33
2023-03-05T09:16:27.227Z,39.47
2023-03-05T09:17:30.990Z,40.53
2023-03-05T09:18:37.943Z,40.33
2023-03-05T09:19:43.402Z,42.20
2023-03-05T09:20:47.119Z,44.97
2023-03-05T09:21:51.090Z,42.97
2023-03-05T09:22:55.244Z,40.28
2023-03-05T09:23:58.919Z,36.65
2023-03-05T09:25:02.879Z,42.55
2023-03-05T09:26:07.654Z,38.70
2023-03-05T09:27:11.326Z,42.47
2023-03-05T09:28:15.102Z,38.78
2023-03-05T09:29:18.736Z,42.20
2023-03-05T09:30:22.887Z,43.42
2023-03-05T09:31:26.721Z,41.40
2023-03-05T09:32:30.614Z,38.10
2023-03-05T09:33:34.952Z,37.67
2023-03-05T09:34:38.904Z,42.75
2023-03-05T09:35:44.367Z,39.88
2023-03-05T09:36:48.260Z,42.17
2023-03-05T09:37:52.056Z,42.65
2023-03-05T09:38:56.060Z,37.75
2023-03-05T09:39:59.864Z,39.42
2023-03-05T09:41:07.812Z,39.80
2023-03-05T09:42:30.505Z,41.93
2023-03-05T09:43:46.320Z,41.97
2023-03-05T09:44:57.122Z,38.65
2023-03-05T09:46:14.378Z,38.28
2023-03-05T09:47:34.645Z,41.38
2023-03-05T09:48:50.804Z,42.07
2023-03-05T09:50:00.124Z,42.17
2023-03-05T09:51:11.960Z,39.80
2023-03-05T09:52:20.729Z,44.13
2023-03-05T09:53:35.973Z,41.88
2023-03-05T09:54:42.682Z,44.43
2023-03-05T09:55:48.006Z,42.50
2023-03-05T09:56:55.449Z,44.00
2023-03-05T09:58:05.175Z,38.78
2023-03-05T09:59:21.667Z,46.65
2023-03-05T10:00:34.181Z,40.33
2023-03-05T10:01:40.575Z,39.55
2023-03-05T10:02:51.238Z,40.63
2023-03-05T10:03:58.808Z,39.03
2023-03-05T10:05:13.710Z,40.17
2023-03-05T10:06:23.780Z,40.50
2023-03-05T10:07:31.289Z,40.15
2023-03-05T10:08:46.333Z,40.45
2023-03-05T10:09:56.399Z,43.53
2023-03-05T10:11:05.941Z,40.13
2023-03-05T10:12:19.751Z,39.93
2023-03-05T10:13:27.690Z,44.40
2023-03-05T10:14:32.973Z,43.67
2023-03-05T10:15:42.337Z,45.15
2023-03-05T10:17:18.217Z,43.95
2023-03-05T10:18:32.348Z,41.67
2023-03-05T10:19:58.238Z,39.53
2023-03-05T10:21:04.467Z,39.53
2023-03-05T10:22:18.948Z,38.90
2023-03-05T10:23:51.378Z,41.70
2023-03-05T10:25:15.265Z,37.17
2023-03-05T10:26:36.524Z,44.53
2023-03-05T10:27:47.998Z,37.17
2023-03-05T10:29:03.166Z,42.58
2023-03-05T10:30:20.044Z,40.72
2023-03-05T10:31:43.734Z,41.60
2023-03-05T10:32:56.447Z,42.55
2023-03-05T10:34:23.253Z,41.40
2023-03-05T10:35:46.179Z,42.05
2023-03-05T10:37:05.134Z,44.17
2023-03-05T10:38:29.551Z,45.50
2023-03-05T10:40:02.358Z,41.92
2023-03-05T10:41:15.668Z,39.80
2023-03-05T10:42:31.002Z,41.17
2023-03-05T10:43:41.876Z,39.13
2023-03-05T10:44:49.014Z,41.43
2023-03-05T10:45:58.194Z,41.20
2023-03-05T10:47:03.868Z,40.63
2023-03-05T10:48:13.677Z,42.92
2023-03-05T10:49:21.778Z,41.83
2023-03-05T10:50:27.842Z,41.53
2023-03-05T10:51:37.222Z,42.45
2023-03-05T10:52:44.832Z,44.38
2023-03-05T10:53:56.842Z,43.80
2023-03-05T10:55:03.281Z,45.17
2023-03-05T10:56:07.820Z,48.87
2023-03-05T10:57:19.030Z,45.22
2023-03-05T10:58:24.712Z,42.97
2023-03-05T10:59:29.464Z,39.88
2023-03-05T11:00:33.493Z,42.38
2023-03-05T11:01:37.556Z,40.47
2023-03-05T11:02:56.835Z,40.03
2023-03-05T11:04:02.596Z,35.10
2023-03-05T11:05:26.936Z,43.05
2023-03-05T11:06:38.036Z,43.42
2023-03-05T11:07:41.771Z,39.63
2023-03-05T11:08:45.549Z,36.38
2023-03-05T11:10:04.975Z,36.85
2023-03-05T11:11:16.128Z,39.08
2023-03-05T11:12:21.261Z,38.30
2023-03-05T11:13:28.708Z,38.30
2023-03-05T11:14:33.882Z,37.00
2023-03-05T11:15:37.661Z,37.30
2023-03-05T11:16:48.612Z,39.00
2023-03-05T11:18:16.686Z,40.25
2023-03-05T11:19:25.277Z,38.33
2023-03-05T11:20:34.621Z,39.10
2023-03-05T11:21:38.344Z,39.20
2023-03-05T11:22:42.080Z,36.40
2023-03-05T11:23:45.937Z,38.90
2023-03-05T11:25:13.877Z,33.97
2023-03-05T11:26:23.640Z,35.03
2023-03-05T11:27:33.305Z,37.05
2023-03-05T11:28:39.498Z,38.17
2023-03-05T11:29:49.935Z,32.65
2023-03-05T11:30:59.771Z,42.47
2023-03-05T11:32:17.764Z,38.70
2023-03-05T11:33:23.581Z,43.33
2023-03-05T11:34:32.070Z,41.22
2023-03-05T11:35:38.596Z,40.67
2023-03-05T11:36:59.619Z,43.97
2023-03-05T11:38:07.317Z,42.50
2023-03-05T11:39:16.758Z,44.10
2023-03-05T11:40:25.735Z,45.10
2023-03-05T11:41:36.957Z,42.78
2023-03-05T11:42:41.951Z,38.73
2023-03-05T11:43:45.815Z,39.55
2023-03-05T11:44:52.279Z,41.95
2023-03-05T11:46:02.707Z,44.35
2023-03-05T11:47:18.817Z,44.53
2023-03-05T11:48:27.614Z,39.97
2023-03-05T11:49:35.102Z,44.88
2023-03-05T11:50:42.040Z,43.55
2023-03-05T11:51:49.745Z,38.35
2023-03-05T11:52:56.487Z,44.42
2023-03-05T11:54:08.477Z,43.13
2023-03-05T11:55:16.860Z,43.85
2023-03-05T11:56:26.547Z,44.15
2023-03-05T11:57:33.961Z,41.33
2023-03-05T11:58:44.822Z,43.72
2023-03-05T11:59:49.314Z,40.43
2023-03-05T12:00:53.647Z,39.13
2023-03-05T12:01:58.566Z,39.53
2023-03-05T12:03:05.928Z,43.47
2023-03-05T12:04:09.790Z,42.63
2023-03-05T12:05:16.994Z,38.97
2023-03-05T12:06:29.135Z,41.50
2023-03-05T12:07:39.024Z,43.70
2023-03-05T12:08:45.954Z,41.22
2023-03-05T12:09:51.844Z,42.97
2023-03-05T12:10:56.453Z,43.80
2023-03-05T12:12:10.332Z,44.92
2023-03-05T12:13:23.396Z,44.65
2023-03-05T12:14:36.096Z,48.75
2023-03-05T12:15:50.570Z,43.92
2023-03-05T12:16:59.894Z,45.03
2023-03-05T12:18:19.297Z,46.17
2023-03-05T12:19:39.572Z,39.53
2023-03-05T12:20:50.224Z,38.65
2023-03-05T12:21:55.365Z,40.17
2023-03-05T12:22:59.261Z,39.53
2023-03-05T12:24:05.166Z,40.55
2023-03-05T12:25:28.675Z,40.47
2023-03-05T12:26:57.901Z,41.22
2023-03-05T12:28:03.856Z,46.00
2023-03-05T12:29:28.932Z,48.77
2023-03-05T12:30:58.011Z,47.10
2023-03-05T12:32:02.463Z,44.35
2023-03-05T12:33:07.457Z,43.55
2023-03-05T12:34:58.140Z,45.38
2023-03-05T12:36:39.640Z,40.93
2023-03-05T12:38:26.443Z,42.13
2023-03-05T12:39:49.784Z,40.33
2023-03-05T12:40:53.469Z,41.05
2023-03-05T12:41:57.219Z,40.97
2023-03-05T12:43:03.855Z,38.80
2023-03-05T12:44:17.921Z,42.85
2023-03-05T12:45:42.354Z,43.50
2023-03-05T12:46:46.738Z,39.67
2023-03-05T12:48:28.533Z,41.42
2023-03-05T12:49:39.552Z,40.90
2023-03-05T12:50:51.140Z,42.42
2023-03-05T12:51:56.316Z,40.42
2023-03-05T12:53:11.385Z,40.47
2023-03-05T12:54:27.865Z,44.50
2023-03-05T12:55:33.741Z,41.33
2023-03-05T12:56:45.682Z,40.58
2023-03-05T12:57:53.427Z,42.22
2023-03-05T12:59:01.756Z,45.63
2023-03-05T13:00:11.673Z,45.10
2023-03-05T13:01:33.088Z,47.17
2023-03-05T13:02:40.600Z,49.00
2023-03-05T13:03:49.174Z,47.20
2023-03-05T13:04:58.342Z,48.67
2023-03-05T13:06:02.662Z,47.88
2023-03-05T13:07:14.354Z,45.13
2023-03-05T13:08:23.260Z,45.80
2023-03-05T13:09:30.737Z,42.30
2023-03-05T13:10:34.471Z,47.08
2023-03-05T13:11:39.829Z,42.70
2023-03-05T13:12:51.840Z,44.03
2023-03-05T13:13:58.051Z,47.40
2023-03-05T13:15:06.044Z,51.33
2023-03-05T13:16:21.698Z,46.42
2023-03-05T13:17:41.660Z,46.92
2023-03-05T13:18:48.667Z,43.67
2023-03-05T13:19:53.059Z,46.50
2023-03-05T13:21:05.329Z,47.67
2023-03-05T13:22:12.967Z,44.33
2023-03-05T13:23:19.749Z,43.08
2023-03-05T13:24:23.474Z,44.43
2023-03-05T13:25:27.320Z,47.08
2023-03-05T13:26:36.887Z,44.58
2023-03-05T13:27:40.706Z,37.83
2023-03-05T13:28:45.354Z,45.42
2023-03-05T13:29:59.600Z,44.17
2023-03-05T13:31:05.669Z,46.03
2023-03-05T13:32:29.205Z,42.17
2023-03-05T13:33:34.933Z,46.35
2023-03-05T13:34:47.409Z,46.20
2023-03-05T13:35:52.994Z,40.87
2023-03-05T13:37:01.038Z,41.03
2023-03-05T13:38:04.860Z,45.28
2023-03-05T13:39:08.672Z,41.80
2023-03-05T13:40:21.727Z,41.22
2023-03-05T13:41:27.559Z,48.10
2023-03-05T13:42:32.136Z,41.17
2023-03-05T13:43:42.739Z,50.08
2023-03-05T13:44:55.265Z,48.28
2023-03-05T13:46:00.757Z,46.15
2023-03-05T13:47:17.849Z,43.47
2023-03-05T13:48:21.648Z,47.17
2023-03-05T13:49:26.645Z,46.15
2023-03-05T13:50:32.471Z,44.10
2023-03-05T13:51:46.551Z,50.63
2023-03-05T13:52:59.568Z,47.80
2023-03-05T13:54:03.353Z,50.97
2023-03-05T13:55:17.008Z,48.05
2023-03-05T13:56:21.885Z,48.88
2023-03-05T13:57:40.115Z,50.65
2023-03-05T13:58:46.868Z,43.43
2023-03-05T13:59:53.887Z,50.78
2023-03-05T14:01:15.950Z,49.50
2023-03-05T14:02:21.428Z,50.92
2023-03-05T14:03:30.061Z,45.63
2023-03-05T14:04:40.988Z,46.37
2023-03-05T14:05:45.487Z,45.15
2023-03-05T14:06:52.972Z,47.30
2023-03-05T14:07:56.912Z,52.80
2023-03-05T14:09:07.099Z,47.35
2023-03-05T14:10:31.368Z,46.67
2023-03-05T14:11:35.783Z,47.72
2023-03-05T14:12:42.207Z,50.15
2023-03-05T14:13:47.463Z,44.08
2023-03-05T14:14:51.696Z,49.58
2023-03-05T14:16:15.901Z,48.43